createdAt,value
2019-02-09T00:02:07.173Z,2.00
2019-02-09T00:04:37.529Z,1.80
2019-02-09T00:07:07.898Z,1.90
2019-02-09T00:09:38.246Z,1.60
2019-02-09T00:12:08.894Z,1.90
2019-02-09T00:14:39.542Z,2.17
2019-02-09T00:17:09.889Z,2.30
2019-02-09T00:19:40.498Z,1.83
2019-02-09T00:22:11.086Z,1.90
2019-02-09T00:24:41.684Z,2.13
2019-02-09T00:27:12.122Z,2.20
2019-02-09T00:29:46.479Z,2.00
2019-02-09T00:32:14.479Z,2.10
2019-02-09T00:34:44.947Z,1.80
2019-02-09T00:37:15.698Z,2.10
2019-02-09T00:39:46.000Z,1.80
2019-02-09T00:42:16.454Z,2.07
2019-02-09T00:44:47.077Z,2.10
2019-02-09T00:47:17.450Z,2.03
2019-02-09T00:49:47.781Z,2.10
2019-02-09T00:52:18.244Z,2.37
2019-02-09T00:54:48.602Z,2.47
2019-02-09T00:57:19.003Z,2.13
2019-02-09T00:59:54.237Z,2.20
2019-02-09T01:02:21.691Z,2.30
2019-02-09T01:04:52.000Z,2.00
2019-02-09T01:07:22.304Z,2.20
2019-02-09T01:09:52.900Z,2.07
2019-02-09T01:12:23.308Z,2.30
2019-02-09T01:14:53.663Z,2.20
2019-02-09T01:17:24.110Z,2.10
2019-02-09T01:19:54.434Z,2.47
2019-02-09T01:22:24.813Z,2.30
2019-02-09T01:24:55.155Z,2.00
2019-02-09T01:27:25.593Z,2.30
2019-02-09T01:30:02.220Z,2.60
2019-02-09T01:32:28.308Z,2.30
2019-02-09T01:34:58.670Z,2.17
2019-02-09T01:37:29.013Z,1.90
2019-02-09T01:39:59.331Z,1.93
2019-02-09T01:42:29.808Z,2.07
2019-02-09T01:45:00.258Z,1.80
2019-02-09T01:47:31.155Z,1.70
2019-02-09T01:50:01.841Z,1.67
2019-02-09T01:52:32.145Z,1.90
2019-02-09T01:55:02.495Z,1.83
2019-02-09T01:57:32.791Z,2.17
2019-02-09T02:00:10.483Z,1.60
2019-02-09T02:02:35.963Z,1.67
2019-02-09T02:05:07.580Z,2.03
2019-02-09T02:07:38.309Z,1.70
2019-02-09T02:10:13.902Z,1.83
2019-02-09T02:12:44.197Z,1.90
2019-02-09T02:15:17.524Z,1.90
2019-02-09T02:17:47.907Z,1.73
2019-02-09T02:20:21.445Z,1.90
2019-02-09T02:22:52.023Z,2.03
2019-02-09T02:25:23.678Z,1.90
2019-02-09T02:27:54.521Z,1.90
2019-02-09T02:30:43.988Z,2.43
2019-02-09T02:33:14.340Z,2.30
2019-02-09T02:35:45.032Z,2.30
2019-02-09T02:38:15.684Z,1.97
2019-02-09T02:40:45.984Z,2.10
2019-02-09T02:43:16.354Z,2.10
2019-02-09T02:45:47.092Z,2.07
2019-02-09T02:48:17.970Z,1.87
2019-02-09T02:50:49.230Z,1.83
2019-02-09T02:53:19.587Z,1.80
2019-02-09T02:55:51.980Z,2.20
2019-02-09T02:58:22.770Z,2.13
2019-02-09T03:00:53.109Z,2.00
2019-02-09T03:03:23.438Z,2.30
2019-02-09T03:05:54.052Z,1.87
2019-02-09T03:08:24.374Z,1.93
2019-02-09T03:10:54.750Z,1.87
2019-02-09T03:13:25.115Z,1.83
2019-02-09T03:15:55.436Z,2.13
2019-02-09T03:18:27.814Z,1.80
2019-02-09T03:20:58.187Z,2.37
2019-02-09T03:23:28.618Z,2.10
2019-02-09T03:25:59.210Z,2.00
2019-02-09T03:28:29.575Z,2.67
2019-02-09T03:31:00.278Z,2.07
2019-02-09T03:33:30.589Z,2.20
2019-02-09T03:36:00.925Z,1.93
2019-02-09T03:38:31.376Z,2.47
2019-02-09T03:41:01.729Z,2.10
2019-02-09T03:43:32.052Z,2.17
2019-02-09T03:46:02.613Z,2.23
2019-02-09T03:48:32.992Z,2.30
2019-02-09T03:51:03.368Z,2.53
2019-02-09T03:53:33.656Z,2.40
2019-02-09T03:56:04.049Z,2.20
2019-02-09T03:58:34.384Z,2.27
2019-02-09T04:01:04.932Z,2.27
2019-02-09T04:03:35.568Z,2.33
2019-02-09T04:06:06.254Z,2.20
2019-02-09T04:08:36.603Z,2.33
2019-02-09T04:11:07.308Z,2.40
2019-02-09T04:13:37.647Z,2.07
2019-02-09T04:16:07.970Z,2.10
2019-02-09T04:18:38.331Z,2.17
2019-02-09T04:21:08.687Z,1.90
2019-02-09T04:23:39.050Z,1.80
2019-02-09T04:26:09.673Z,1.93
2019-02-09T04:28:40.366Z,2.30
2019-02-09T04:31:10.770Z,1.93
2019-02-09T04:33:41.235Z,1.97
2019-02-09T04:36:11.559Z,2.03
2019-02-09T04:38:41.825Z,1.60
2019-02-09T04:41:12.194Z,2.17
2019-02-09T04:43:42.707Z,2.20
2019-02-09T04:46:13.308Z,1.57
2019-02-09T04:48:43.644Z,1.67
2019-02-09T04:51:14.005Z,2.10
2019-02-09T04:53:44.619Z,1.90
2019-02-09T04:56:14.914Z,1.70
2019-02-09T04:58:45.246Z,1.77
2019-02-09T05:01:15.594Z,1.80
2019-02-09T05:03:46.366Z,1.93
2019-02-09T05:06:17.035Z,2.03
2019-02-09T05:08:47.364Z,1.90
2019-02-09T05:11:17.974Z,2.30
2019-02-09T05:13:48.382Z,2.50
2019-02-09T05:16:19.087Z,1.97
2019-02-09T05:18:49.442Z,1.97
2019-02-09T05:21:20.130Z,2.60
2019-02-09T05:23:50.701Z,2.10
2019-02-09T05:26:21.184Z,2.10
2019-02-09T05:28:51.822Z,1.83
2019-02-09T05:31:23.448Z,2.10
2019-02-09T05:33:54.285Z,1.60
2019-02-09T05:36:24.568Z,1.50
2019-02-09T05:38:55.298Z,1.40
2019-02-09T05:41:25.690Z,1.80
2019-02-09T05:43:56.162Z,1.70
2019-02-09T05:46:26.565Z,1.57
2019-02-09T05:48:56.853Z,1.70
2019-02-09T05:51:27.439Z,1.60
2019-02-09T05:53:57.810Z,1.70
2019-02-09T05:56:28.131Z,1.43
2019-02-09T05:58:58.761Z,1.60
2019-02-09T06:01:32.347Z,1.70
2019-02-09T06:04:01.193Z,2.07
2019-02-09T06:06:31.515Z,2.20
2019-02-09T06:09:02.105Z,1.80
2019-02-09T06:11:32.458Z,2.20
2019-02-09T06:14:03.044Z,2.03
2019-02-09T06:16:33.777Z,1.90
2019-02-09T06:19:04.176Z,1.90
2019-02-09T06:21:34.600Z,2.43
2019-02-09T06:24:05.110Z,1.97
2019-02-09T06:26:35.708Z,2.00
2019-02-09T06:29:06.839Z,2.17
2019-02-09T06:31:40.869Z,1.90
2019-02-09T06:34:09.823Z,1.83
2019-02-09T06:36:40.153Z,2.57
2019-02-09T06:39:13.309Z,1.60
2019-02-09T06:41:43.610Z,2.33
2019-02-09T06:44:14.217Z,1.90
2019-02-09T06:46:45.296Z,2.30
2019-02-09T06:49:15.942Z,2.40
2019-02-09T06:51:47.190Z,2.33
2019-02-09T06:54:17.803Z,2.43
2019-02-09T06:56:48.768Z,1.80
2019-02-09T06:59:19.118Z,1.90
2019-02-09T07:01:49.464Z,1.90
2019-02-09T07:04:19.784Z,1.70
2019-02-09T07:06:50.114Z,2.00
2019-02-09T07:09:20.810Z,2.20
2019-02-09T07:11:51.154Z,2.07
2019-02-09T07:14:22.036Z,3.17
2019-02-09T07:16:52.929Z,2.13
2019-02-09T07:19:23.543Z,2.70
2019-02-09T07:21:53.842Z,2.17
2019-02-09T07:24:24.190Z,1.70
2019-02-09T07:26:54.521Z,2.07
2019-02-09T07:29:24.897Z,2.10
2019-02-09T07:31:56.478Z,1.83
2019-02-09T07:34:27.498Z,1.87
2019-02-09T07:36:57.878Z,2.27
2019-02-09T07:39:28.246Z,1.83
2019-02-09T07:41:58.543Z,2.10
2019-02-09T07:44:28.904Z,2.00
2019-02-09T07:46:59.219Z,2.77
2019-02-09T07:49:29.817Z,2.10
2019-02-09T07:52:00.414Z,2.20
2019-02-09T07:54:30.818Z,1.70
2019-02-09T07:57:01.201Z,2.07
2019-02-09T07:59:31.528Z,2.10
2019-02-09T08:02:04.625Z,2.00
2019-02-09T08:04:33.947Z,1.80
2019-02-09T08:07:04.441Z,1.90
2019-02-09T08:09:35.066Z,1.83
2019-02-09T08:12:06.212Z,1.67
2019-02-09T08:14:36.538Z,2.30
2019-02-09T08:17:06.923Z,1.83
2019-02-09T08:19:37.267Z,2.07
2019-02-09T08:22:07.694Z,1.90
2019-02-09T08:24:38.344Z,2.30
2019-02-09T08:27:08.858Z,1.83
2019-02-09T08:29:39.479Z,1.70
2019-02-09T08:32:13.015Z,1.73
2019-02-09T08:34:43.598Z,2.20
2019-02-09T08:37:13.920Z,2.10
2019-02-09T08:39:44.273Z,1.90
2019-02-09T08:42:14.900Z,2.03
2019-02-09T08:44:45.238Z,1.90
2019-02-09T08:47:15.604Z,2.27
2019-02-09T08:49:46.203Z,2.10
2019-02-09T08:52:16.780Z,2.03
2019-02-09T08:54:47.355Z,2.00
2019-02-09T08:57:17.933Z,2.23
2019-02-09T08:59:48.340Z,2.30
2019-02-09T09:02:20.717Z,2.20
2019-02-09T09:04:50.979Z,2.23
2019-02-09T09:07:21.606Z,2.03
2019-02-09T09:09:51.931Z,2.40
2019-02-09T09:12:24.381Z,2.40
2019-02-09T09:14:54.709Z,2.53
2019-02-09T09:17:25.388Z,2.50
2019-02-09T09:19:55.713Z,3.20
2019-02-09T09:22:26.545Z,2.40
2019-02-09T09:25:03.575Z,2.97
2019-02-09T09:27:34.983Z,2.40
2019-02-09T09:30:15.421Z,2.43
2019-02-09T09:32:46.499Z,2.40
2019-02-09T09:35:17.160Z,2.40
2019-02-09T09:37:47.849Z,2.10
2019-02-09T09:40:24.913Z,2.20
2019-02-09T09:42:55.471Z,2.20
2019-02-09T09:45:29.755Z,2.27
2019-02-09T09:48:00.382Z,2.87
2019-02-09T09:50:31.829Z,2.47
2019-02-09T09:53:02.135Z,2.50
2019-02-09T09:55:32.519Z,2.23
2019-02-09T09:58:02.828Z,2.83
2019-02-09T10:00:33.643Z,2.67
2019-02-09T10:03:04.176Z,2.60
2019-02-09T10:05:34.629Z,2.60
2019-02-09T10:08:06.070Z,2.70
2019-02-09T10:10:36.721Z,2.40
2019-02-09T10:13:08.049Z,2.70
2019-02-09T10:15:38.574Z,2.60
2019-02-09T10:18:08.907Z,2.40
2019-02-09T10:20:39.191Z,2.40
2019-02-09T10:23:09.881Z,2.43
2019-02-09T10:25:40.489Z,2.70
2019-02-09T10:28:11.179Z,2.60
2019-02-09T10:30:41.591Z,3.00
2019-02-09T10:33:12.618Z,2.23
2019-02-09T10:35:42.972Z,2.40
2019-02-09T10:38:13.318Z,2.60
2019-02-09T10:40:43.657Z,2.60
2019-02-09T10:43:13.951Z,1.90
2019-02-09T10:45:44.480Z,2.20
2019-02-09T10:48:15.175Z,2.17
2019-02-09T10:50:47.131Z,2.60
2019-02-09T10:53:18.291Z,2.80
2019-02-09T10:55:49.022Z,4.03
2019-02-09T10:58:20.239Z,2.63
2019-02-09T11:01:08.665Z,2.57
2019-02-09T11:03:39.199Z,2.80
2019-02-09T11:06:09.667Z,2.67
2019-02-09T11:08:40.616Z,2.90
2019-02-09T11:11:11.040Z,2.50
2019-02-09T11:13:41.447Z,2.37
2019-02-09T11:16:12.097Z,2.40
2019-02-09T11:18:42.680Z,2.60
2019-02-09T11:21:13.027Z,3.17
2019-02-09T11:23:43.519Z,3.03
2019-02-09T11:26:13.799Z,2.87
2019-02-09T11:28:44.439Z,3.00
2019-02-09T11:31:15.197Z,2.80
2019-02-09T11:33:45.915Z,2.50
2019-02-09T11:36:16.745Z,2.83
2019-02-09T11:38:47.066Z,3.10
2019-02-09T11:41:17.419Z,2.43
2019-02-09T11:43:47.742Z,2.90
2019-02-09T11:46:18.108Z,2.70
2019-02-09T11:48:48.466Z,2.93
2019-02-09T11:51:18.823Z,2.20
2019-02-09T11:53:49.251Z,2.17
2019-02-09T11:56:19.589Z,2.27
2019-02-09T11:58:50.006Z,2.30
2019-02-09T12:01:20.859Z,2.77
2019-02-09T12:03:51.511Z,2.30
2019-02-09T12:06:21.913Z,2.50
2019-02-09T12:08:52.259Z,2.83
2019-02-09T12:11:22.835Z,2.80
2019-02-09T12:13:55.417Z,2.57
2019-02-09T12:16:26.070Z,2.70
2019-02-09T12:18:56.376Z,2.33
2019-02-09T12:21:26.717Z,2.60
2019-02-09T12:23:57.311Z,2.27
2019-02-09T12:26:28.469Z,2.50
2019-02-09T12:28:58.853Z,2.53
2019-02-09T12:31:29.220Z,2.80
2019-02-09T12:33:59.771Z,2.40
2019-02-09T12:36:30.511Z,2.10
2019-02-09T12:39:01.092Z,2.90
2019-02-09T12:41:31.473Z,2.03
2019-02-09T12:44:07.965Z,2.33
2019-02-09T12:46:39.400Z,2.30
2019-02-09T12:49:09.849Z,1.70
2019-02-09T12:51:40.149Z,2.50
2019-02-09T12:54:10.578Z,2.17
2019-02-09T12:56:41.192Z,2.40
2019-02-09T12:59:14.959Z,2.10
2019-02-09T13:01:43.988Z,2.60
2019-02-09T13:04:14.793Z,2.63
2019-02-09T13:06:45.120Z,2.37
2019-02-09T13:09:15.712Z,2.20
2019-02-09T13:11:46.610Z,2.17
2019-02-09T13:14:17.079Z,2.50
2019-02-09T13:16:47.428Z,2.40
2019-02-09T13:19:17.886Z,2.40
2019-02-09T13:21:48.237Z,2.83
2019-02-09T13:24:18.576Z,2.50
2019-02-09T13:26:49.044Z,2.07
2019-02-09T13:29:19.906Z,2.50
2019-02-09T13:31:50.251Z,2.17
2019-02-09T13:34:20.874Z,2.20
2019-02-09T13:36:51.282Z,2.53
2019-02-09T13:39:21.620Z,2.30
2019-02-09T13:41:52.265Z,2.53
2019-02-09T13:44:22.616Z,2.10
2019-02-09T13:46:52.970Z,2.43
2019-02-09T13:49:23.301Z,2.37
2019-02-09T13:51:53.643Z,2.77
2019-02-09T13:54:34.659Z,1.70
2019-02-09T13:57:05.217Z,1.50
2019-02-09T13:59:35.517Z,1.87
2019-02-09T14:02:08.506Z,1.40
2019-02-09T14:04:38.804Z,1.90
2019-02-09T14:07:09.173Z,1.33
2019-02-09T14:09:40.649Z,1.70
2019-02-09T14:12:10.969Z,1.80
2019-02-09T14:14:41.462Z,1.93
2019-02-09T14:17:12.512Z,2.10
2019-02-09T14:19:43.389Z,2.27
2019-02-09T14:22:22.191Z,2.70
2019-02-09T14:24:52.842Z,2.67
2019-02-09T14:27:24.695Z,2.43
2019-02-09T14:29:55.020Z,2.43
2019-02-09T14:32:25.606Z,2.53
2019-02-09T14:34:56.009Z,3.07
2019-02-09T14:38:46.676Z,2.60
2019-02-09T14:41:17.273Z,2.27
2019-02-09T14:43:47.576Z,2.93
2019-02-09T14:47:00.752Z,2.50
2019-02-09T14:49:31.364Z,2.97
2019-02-09T14:52:10.900Z,3.00
2019-02-09T14:54:41.484Z,2.83
2019-02-09T14:57:11.823Z,2.40
2019-02-09T14:59:42.563Z,2.90
2019-02-09T15:02:13.406Z,2.60
2019-02-09T15:05:02.835Z,2.47
2019-02-09T15:07:33.189Z,3.07
2019-02-09T15:10:04.057Z,3.17
2019-02-09T15:12:45.904Z,3.30
2019-02-09T15:16:02.584Z,3.07
2019-02-09T15:18:32.960Z,2.77
2019-02-09T15:21:14.558Z,2.73
2019-02-09T15:23:44.967Z,2.70
2019-02-09T15:26:22.293Z,3.00
2019-02-09T15:28:52.933Z,2.83
2019-02-09T15:31:25.445Z,2.20
2019-02-09T15:33:56.434Z,2.93
2019-02-09T15:36:26.825Z,2.40
2019-02-09T15:38:57.211Z,3.10
2019-02-09T15:41:27.795Z,2.40
2019-02-09T15:43:58.217Z,2.80
2019-02-09T15:46:28.589Z,2.70
2019-02-09T15:48:59.198Z,2.57
2019-02-09T15:51:29.532Z,2.47
2019-02-09T15:53:59.871Z,2.60
2019-02-09T15:56:30.534Z,2.43
2019-02-09T15:59:01.169Z,2.70
2019-02-09T16:01:32.616Z,2.03
2019-02-09T16:04:02.987Z,2.53
2019-02-09T16:06:33.578Z,2.27
2019-02-09T16:09:05.480Z,2.33
2019-02-09T16:11:36.198Z,1.60
2019-02-09T16:14:06.713Z,2.20
2019-02-09T16:16:44.140Z,2.10
2019-02-09T16:19:14.540Z,2.00
2019-02-09T16:21:48.090Z,2.57
2019-02-09T16:24:19.465Z,1.90
2019-02-09T16:26:49.813Z,2.43
2019-02-09T16:29:20.167Z,2.13
2019-02-09T16:31:50.777Z,1.83
2019-02-09T16:34:25.616Z,2.30
2019-02-09T16:36:54.673Z,2.10
2019-02-09T16:39:25.100Z,1.90
2019-02-09T16:41:55.473Z,1.93
2019-02-09T16:44:29.971Z,1.93
2019-02-09T16:47:00.269Z,2.27
2019-02-09T16:49:32.606Z,2.37
2019-02-09T16:52:02.962Z,1.83
2019-02-09T16:54:34.646Z,2.20
2019-02-09T16:57:05.303Z,2.53
2019-02-09T16:59:36.050Z,2.17
2019-02-09T17:02:06.512Z,2.50
2019-02-09T17:04:40.432Z,2.47
2019-02-09T17:07:11.257Z,2.43
2019-02-09T17:09:44.771Z,2.37
2019-02-09T17:12:15.133Z,2.90
2019-02-09T17:14:45.518Z,2.83
2019-02-09T17:17:15.865Z,2.73
2019-02-09T17:19:46.208Z,2.67
2019-02-09T17:22:16.595Z,2.67
2019-02-09T17:24:47.363Z,2.70
2019-02-09T17:27:17.674Z,2.20
2019-02-09T17:29:48.152Z,2.83
2019-02-09T17:32:18.464Z,2.60
2019-02-09T17:34:48.826Z,2.53
2019-02-09T17:37:40.207Z,2.60
2019-02-09T17:40:14.015Z,3.27
2019-02-09T17:42:44.394Z,3.03
2019-02-09T17:45:19.738Z,2.80
2019-02-09T17:47:50.063Z,2.40
2019-02-09T17:50:20.514Z,3.33
2019-02-09T17:52:50.858Z,3.13
2019-02-09T17:55:21.541Z,3.63
2019-02-09T17:57:52.267Z,2.97
2019-02-09T18:00:45.273Z,2.90
2019-02-09T18:03:24.874Z,3.23
2019-02-09T18:05:55.283Z,2.50
2019-02-09T18:08:25.635Z,3.77
2019-02-09T18:10:55.967Z,3.00
2019-02-09T18:13:26.880Z,2.87
2019-02-09T18:15:58.128Z,2.87
2019-02-09T18:18:28.817Z,3.23
2019-02-09T18:20:59.342Z,3.40
2019-02-09T18:23:38.063Z,2.83
2019-02-09T18:26:08.428Z,2.40
2019-02-09T18:28:38.840Z,2.73
2019-02-09T18:31:09.211Z,2.53
2019-02-09T18:33:41.002Z,2.57
2019-02-09T18:36:11.328Z,3.93
2019-02-09T18:38:41.994Z,3.20
2019-02-09T18:41:12.806Z,3.03
2019-02-09T18:43:43.185Z,2.53
2019-02-09T18:46:13.583Z,3.10
2019-02-09T18:48:44.071Z,2.80
2019-02-09T18:51:17.513Z,2.90
2019-02-09T18:53:48.286Z,3.10
2019-02-09T18:56:18.678Z,3.00
2019-02-09T18:58:49.431Z,3.00
2019-02-09T19:01:21.820Z,3.20
2019-02-09T19:03:52.204Z,3.07
2019-02-09T19:06:23.359Z,3.27
2019-02-09T19:08:53.694Z,3.40
2019-02-09T19:11:24.389Z,3.40
2019-02-09T19:13:54.758Z,3.10
2019-02-09T19:16:25.489Z,3.37
2019-02-09T19:18:55.869Z,2.87
2019-02-09T19:21:26.351Z,2.90
2019-02-09T19:23:56.672Z,3.17
2019-02-09T19:26:27.123Z,3.17
2019-02-09T19:28:58.852Z,2.80
2019-02-09T19:31:29.183Z,2.50
2019-02-09T19:33:59.876Z,3.20
2019-02-09T19:36:30.291Z,3.30
2019-02-09T19:39:00.658Z,2.73
2019-02-09T19:41:31.028Z,3.23
2019-02-09T19:44:01.767Z,3.20
2019-02-09T19:46:32.143Z,3.10
2019-02-09T19:49:02.518Z,2.70
2019-02-09T19:51:33.372Z,1.93
2019-02-09T19:54:03.758Z,2.93
2019-02-09T19:56:34.395Z,2.30
2019-02-09T19:59:05.118Z,2.80
2019-02-09T20:01:35.460Z,3.17
2019-02-09T20:04:05.851Z,2.63
2019-02-09T20:06:36.207Z,2.60
2019-02-09T20:09:09.919Z,2.87
2019-02-09T20:11:40.570Z,3.23
2019-02-09T20:14:10.936Z,3.17
2019-02-09T20:16:41.571Z,3.23
2019-02-09T20:19:11.904Z,2.73
2019-02-09T20:21:42.602Z,2.90
2019-02-09T20:24:12.948Z,3.10
2019-02-09T20:26:43.598Z,3.27
2019-02-09T20:29:14.436Z,2.70
2019-02-09T20:31:44.799Z,3.30
2019-02-09T20:34:15.172Z,2.83
2019-02-09T20:36:45.501Z,3.13
2019-02-09T20:39:16.080Z,3.50
2019-02-09T20:41:46.472Z,3.00
2019-02-09T20:44:18.724Z,2.90
2019-02-09T20:46:49.180Z,3.13
2019-02-09T20:49:20.580Z,3.13
2019-02-09T20:51:51.177Z,3.07
2019-02-09T20:54:21.864Z,3.40
2019-02-09T20:56:52.174Z,3.07
2019-02-09T20:59:23.413Z,3.13
2019-02-09T21:01:54.043Z,3.40
2019-02-09T21:04:24.394Z,3.90
2019-02-09T21:06:55.014Z,3.77
2019-02-09T21:09:25.398Z,2.63
2019-02-09T21:11:55.802Z,4.33
2019-02-09T21:14:26.170Z,3.03
2019-02-09T21:16:56.541Z,3.47
2019-02-09T21:19:27.158Z,3.23
2019-02-09T21:21:57.971Z,4.00
2019-02-09T21:24:28.333Z,3.43
2019-02-09T21:26:58.831Z,3.53
2019-02-09T21:29:29.720Z,3.90
2019-02-09T21:32:00.319Z,2.93
2019-02-09T21:34:30.674Z,3.30
2019-02-09T21:37:01.064Z,3.53
2019-02-09T21:39:33.953Z,3.47
2019-02-09T21:42:03.958Z,5.43
2019-02-09T21:44:34.314Z,4.03
2019-02-09T21:47:04.648Z,3.37
2019-02-09T21:49:34.958Z,3.20
2019-02-09T21:52:05.374Z,3.30
2019-02-09T21:54:35.775Z,2.87
2019-02-09T21:57:06.457Z,2.93
2019-02-09T21:59:36.823Z,2.87
2019-02-09T22:02:07.424Z,3.17
2019-02-09T22:04:37.759Z,3.30
2019-02-09T22:07:08.118Z,3.33
2019-02-09T22:09:38.516Z,3.50
2019-02-09T22:12:08.934Z,2.80
2019-02-09T22:14:39.377Z,3.23
2019-02-09T22:17:10.187Z,3.33
2019-02-09T22:19:40.568Z,2.77
2019-02-09T22:22:11.190Z,2.77
2019-02-09T22:24:41.727Z,4.43
2019-02-09T22:27:12.055Z,3.10
2019-02-09T22:29:42.472Z,3.20
2019-02-09T22:32:13.175Z,3.47
2019-02-09T22:34:43.495Z,2.70
2019-02-09T22:37:13.855Z,3.53
2019-02-09T22:39:44.209Z,3.10
2019-02-09T22:42:14.529Z,3.00
2019-02-09T22:44:46.071Z,3.10
2019-02-09T22:47:16.414Z,2.90
2019-02-09T22:49:46.739Z,3.03
2019-02-09T22:52:17.234Z,2.60
2019-02-09T22:54:47.873Z,3.43
2019-02-09T22:57:18.642Z,3.27
2019-02-09T22:59:48.972Z,3.30
2019-02-09T23:02:19.518Z,2.83
2019-02-09T23:05:48.103Z,3.20
2019-02-09T23:08:18.453Z,3.10
2019-02-09T23:10:49.132Z,3.50
2019-02-09T23:13:19.823Z,3.70
2019-02-09T23:15:50.177Z,3.00
2019-02-09T23:18:20.782Z,3.30
2019-02-09T23:20:51.180Z,3.40
2019-02-09T23:23:21.452Z,3.90
2019-02-09T23:25:51.830Z,3.43
2019-02-09T23:28:22.895Z,3.67
2019-02-09T23:30:53.554Z,3.20
2019-02-09T23:33:29.221Z,3.07
2019-02-09T23:35:59.829Z,3.50
2019-02-09T23:38:30.209Z,3.00
2019-02-09T23:41:13.358Z,3.70
2019-02-09T23:43:43.728Z,3.37
2019-02-09T23:46:14.087Z,3.10
2019-02-09T23:48:44.453Z,3.63
2019-02-09T23:51:15.083Z,2.90
2019-02-09T23:53:45.762Z,3.70
2019-02-09T23:56:16.449Z,3.57
2019-02-09T23:58:46.734Z,3.40
